createdAt,value
2023-03-16T00:00:09.996Z,3.00
2023-03-16T00:06:18.345Z,3.60
2023-03-16T00:12:16.964Z,3.23
2023-03-16T00:18:09.941Z,3.40
2023-03-16T00:24:04.225Z,3.13
2023-03-16T00:29:59.034Z,3.80
2023-03-16T00:36:02.006Z,3.13
2023-03-16T00:41:58.711Z,3.50
2023-03-16T00:47:54.827Z,3.00
2023-03-16T00:53:48.664Z,2.33
2023-03-16T00:59:42.256Z,2.73
2023-03-16T01:05:41.895Z,2.50
2023-03-16T01:11:35.251Z,2.60
2023-03-16T01:17:29.016Z,2.73
2023-03-16T01:23:23.426Z,2.77
2023-03-16T01:29:16.413Z,2.63
2023-03-16T01:35:10.314Z,3.00
2023-03-16T01:41:06.218Z,2.30
2023-03-16T01:46:59.734Z,3.00
2023-03-16T01:52:53.211Z,3.30
2023-03-16T01:58:48.395Z,2.87
2023-03-16T02:04:47.871Z,3.13
2023-03-16T02:10:45.610Z,3.40
2023-03-16T02:16:42.063Z,3.07
2023-03-16T02:22:36.260Z,3.07
2023-03-16T02:28:34.998Z,3.50
2023-03-16T02:34:30.410Z,3.43
2023-03-16T02:40:26.293Z,3.20
2023-03-16T02:46:24.198Z,3.03
2023-03-16T02:52:20.083Z,3.00
2023-03-16T02:58:13.735Z,2.40
2023-03-16T03:04:07.631Z,2.70
2023-03-16T03:10:06.324Z,2.60
2023-03-16T03:16:00.521Z,2.50
2023-03-16T03:21:56.967Z,3.00
2023-03-16T03:27:54.885Z,2.50
2023-03-16T03:33:49.462Z,2.40
2023-03-16T03:39:43.108Z,2.70
2023-03-16T03:45:38.084Z,2.60
2023-03-16T03:51:32.004Z,2.47
2023-03-16T03:57:31.934Z,2.30
2023-03-16T04:03:26.490Z,2.20
2023-03-16T04:09:20.140Z,2.60
2023-03-16T04:15:13.841Z,2.33
2023-03-16T04:21:19.180Z,1.70
2023-03-16T04:27:14.363Z,2.30
2023-03-16T04:33:08.122Z,2.40
2023-03-16T04:39:03.055Z,2.30
2023-03-16T04:44:56.664Z,2.10
2023-03-16T04:50:50.414Z,2.60
2023-03-16T04:56:45.491Z,2.17
2023-03-16T05:02:47.671Z,1.83
2023-03-16T05:08:41.785Z,2.13
2023-03-16T05:14:36.379Z,2.00
2023-03-16T05:20:52.343Z,2.37
2023-03-16T05:26:46.249Z,2.43
2023-03-16T05:32:44.825Z,2.17
2023-03-16T05:38:40.017Z,2.00
2023-03-16T05:44:37.130Z,2.20
2023-03-16T05:50:57.850Z,2.00
2023-03-16T05:56:56.184Z,2.33
2023-03-16T06:02:52.696Z,2.20
2023-03-16T06:08:49.147Z,2.30
2023-03-16T06:14:43.572Z,2.23
2023-03-16T06:20:37.655Z,2.20
2023-03-16T06:26:32.265Z,2.83
2023-03-16T06:32:25.658Z,2.50
2023-03-16T06:38:19.599Z,2.70
2023-03-16T06:44:27.749Z,2.40
2023-03-16T06:50:32.747Z,2.70
2023-03-16T06:56:27.817Z,3.37
2023-03-16T07:02:23.531Z,2.90
2023-03-16T07:08:17.022Z,2.77
2023-03-16T07:14:10.245Z,2.60
2023-03-16T07:20:05.889Z,2.47
2023-03-16T07:25:59.385Z,2.27
2023-03-16T07:31:53.540Z,2.77
2023-03-16T07:37:51.582Z,2.10
2023-03-16T07:43:45.646Z,2.33
2023-03-16T07:49:42.070Z,2.47
2023-03-16T07:55:38.868Z,2.07
2023-03-16T08:01:34.738Z,2.00
2023-03-16T08:07:28.252Z,2.87
2023-03-16T08:13:37.112Z,2.00
2023-03-16T08:19:30.923Z,2.27
2023-03-16T08:25:26.979Z,2.53
2023-03-16T08:31:30.263Z,1.90
2023-03-16T08:37:32.111Z,2.03
2023-03-16T08:43:25.528Z,2.20
2023-03-16T08:49:21.469Z,2.70
2023-03-16T08:55:24.495Z,1.90
2023-03-16T09:01:19.512Z,1.93
2023-03-16T09:07:14.322Z,1.60
2023-03-16T09:13:07.347Z,1.77
2023-03-16T09:19:01.205Z,1.63
2023-03-16T09:24:56.001Z,1.63
2023-03-16T09:30:50.427Z,1.70
2023-03-16T09:36:43.868Z,1.40
2023-03-16T09:42:41.902Z,1.53
2023-03-16T09:48:37.223Z,1.67
2023-03-16T09:54:39.594Z,1.77
2023-03-16T10:00:39.888Z,1.50
2023-03-16T10:06:33.477Z,1.93
2023-03-16T10:12:32.332Z,1.20
2023-03-16T10:18:30.756Z,1.17
2023-03-16T10:24:38.134Z,1.50
2023-03-16T10:30:34.256Z,1.20
2023-03-16T10:36:33.470Z,1.23
2023-03-16T10:42:27.115Z,1.20
2023-03-16T10:48:22.182Z,1.30
2023-03-16T10:54:21.755Z,1.30
2023-03-16T11:00:23.203Z,1.40
2023-03-16T11:06:22.473Z,1.30
2023-03-16T11:12:25.146Z,0.90
2023-03-16T11:18:28.151Z,0.83
2023-03-16T11:24:27.155Z,0.80
2023-03-16T11:30:29.130Z,0.97
2023-03-16T11:36:39.536Z,0.73
2023-03-16T11:42:38.806Z,0.83
2023-03-16T11:48:39.015Z,0.73
2023-03-16T11:54:42.252Z,0.70
2023-03-16T12:00:51.575Z,0.60
2023-03-16T12:06:57.923Z,0.73
2023-03-16T12:13:01.703Z,0.67
2023-03-16T12:19:01.194Z,0.60
2023-03-16T12:24:55.987Z,0.80
2023-03-16T12:30:59.505Z,1.00
2023-03-16T12:37:01.980Z,0.80
2023-03-16T12:43:08.703Z,0.70
2023-03-16T12:49:05.839Z,0.90
2023-03-16T12:55:13.726Z,0.67
2023-03-16T13:01:11.661Z,0.80
2023-03-16T13:07:09.561Z,0.80
2023-03-16T13:13:11.557Z,0.67
2023-03-16T13:19:26.406Z,0.90
2023-03-16T13:25:23.397Z,0.80
2023-03-16T13:31:27.432Z,0.87
2023-03-16T13:37:24.475Z,0.90
2023-03-16T13:43:19.130Z,1.40
2023-03-16T13:49:13.316Z,4.00
2023-03-16T13:55:17.832Z,5.77
2023-03-16T14:01:21.338Z,3.10
2023-03-16T14:07:19.696Z,0.63
2023-03-16T14:13:33.993Z,0.77
2023-03-16T14:19:35.928Z,0.80
2023-03-16T14:25:29.693Z,0.70
2023-03-16T14:31:33.859Z,1.23
2023-03-16T14:37:35.831Z,0.60
2023-03-16T14:43:33.554Z,0.80
2023-03-16T14:49:30.292Z,1.10
2023-03-16T14:55:26.145Z,1.20
2023-03-16T15:01:19.676Z,1.07
2023-03-16T15:07:25.458Z,0.80
2023-03-16T15:13:34.814Z,0.80
2023-03-16T15:19:27.824Z,1.03
2023-03-16T15:25:26.461Z,1.27
2023-03-16T15:31:19.846Z,1.10
2023-03-16T15:37:14.928Z,1.20
2023-03-16T15:43:12.745Z,1.07
2023-03-16T15:49:06.116Z,1.30
2023-03-16T15:55:04.745Z,0.97
2023-03-16T16:01:00.677Z,1.77
2023-03-16T16:06:55.301Z,1.57
2023-03-16T16:12:52.518Z,1.00
2023-03-16T16:18:48.265Z,1.00
2023-03-16T16:24:41.708Z,1.10
2023-03-16T16:30:34.828Z,1.50
2023-03-16T16:36:32.271Z,1.20
2023-03-16T16:42:26.009Z,1.40
2023-03-16T16:48:30.189Z,1.40
2023-03-16T16:54:26.992Z,1.43
2023-03-16T17:00:24.530Z,1.50
2023-03-16T17:06:20.195Z,1.33
2023-03-16T17:12:18.252Z,1.10
2023-03-16T17:18:14.027Z,1.20
2023-03-16T17:24:07.747Z,1.47
2023-03-16T17:30:02.741Z,1.30
2023-03-16T17:35:56.416Z,0.93
2023-03-16T17:41:58.500Z,1.97
2023-03-16T17:47:53.706Z,1.80
2023-03-16T17:53:46.950Z,1.73
2023-03-16T17:59:40.966Z,2.03
2023-03-16T18:05:36.685Z,2.83
2023-03-16T18:11:34.111Z,1.63
2023-03-16T18:17:30.061Z,3.23
2023-03-16T18:23:26.507Z,1.60
2023-03-16T18:29:20.308Z,2.10
2023-03-16T18:35:15.566Z,2.80
2023-03-16T18:41:17.123Z,2.17
2023-03-16T18:47:15.774Z,1.63
2023-03-16T18:53:15.974Z,1.80
2023-03-16T18:59:10.972Z,2.00
2023-03-16T19:05:05.984Z,1.90
2023-03-16T19:11:01.550Z,1.60
2023-03-16T19:16:56.622Z,2.77
2023-03-16T19:22:52.135Z,1.60
2023-03-16T19:28:46.894Z,1.50
2023-03-16T19:34:41.423Z,1.90
2023-03-16T19:40:34.480Z,3.47
2023-03-16T19:46:28.363Z,2.00
2023-03-16T19:52:22.920Z,2.60
2023-03-16T19:58:22.100Z,2.00
2023-03-16T20:04:18.361Z,2.20
2023-03-16T20:10:18.558Z,2.03
2023-03-16T20:16:16.667Z,2.03
2023-03-16T20:22:18.132Z,1.90
2023-03-16T20:28:18.700Z,1.87
2023-03-16T20:34:22.325Z,1.97
2023-03-16T20:40:15.967Z,2.17
2023-03-16T20:46:17.363Z,1.63
2023-03-16T20:52:17.692Z,2.13
2023-03-16T20:58:20.713Z,2.43
2023-03-16T21:04:22.389Z,1.93
2023-03-16T21:10:18.079Z,1.60
2023-03-16T21:16:12.496Z,2.00
2023-03-16T21:22:23.413Z,2.07
2023-03-16T21:28:19.104Z,2.13
2023-03-16T21:34:23.695Z,1.63
2023-03-16T21:40:20.763Z,2.10
2023-03-16T21:46:18.373Z,1.73
2023-03-16T21:52:23.515Z,1.40
2023-03-16T21:58:18.386Z,1.40
2023-03-16T22:04:17.251Z,1.93
2023-03-16T22:10:15.982Z,2.30
2023-03-16T22:16:16.079Z,1.37
2023-03-16T22:22:14.677Z,1.60
2023-03-16T22:28:12.581Z,1.90
2023-03-16T22:34:07.629Z,2.10
2023-03-16T22:40:02.883Z,1.90
2023-03-16T22:45:56.933Z,1.93
2023-03-16T22:51:52.720Z,2.23
2023-03-16T22:57:46.783Z,1.80
2023-03-16T23:03:39.815Z,1.77
2023-03-16T23:09:34.348Z,2.30
2023-03-16T23:15:30.762Z,1.90
2023-03-16T23:21:27.996Z,1.73
2023-03-16T23:27:24.121Z,1.67
2023-03-16T23:33:17.877Z,1.80
2023-03-16T23:39:12.087Z,1.70
2023-03-16T23:45:11.213Z,1.93
2023-03-16T23:51:04.539Z,1.80
2023-03-16T23:56:58.341Z,2.53
